createdAt,value
2019-03-25T00:00:36.029Z,25.77
2019-03-25T00:03:04.331Z,25.23
2019-03-25T00:05:32.602Z,24.60
2019-03-25T00:08:00.882Z,27.47
2019-03-25T00:10:30.778Z,26.20
2019-03-25T00:12:59.318Z,25.23
2019-03-25T00:15:27.518Z,25.40
2019-03-25T00:17:55.801Z,24.63
2019-03-25T00:20:24.242Z,23.67
2019-03-25T00:22:52.617Z,24.93
2019-03-25T00:25:20.806Z,23.50
2019-03-25T00:27:49.072Z,23.70
2019-03-25T00:30:17.638Z,22.97
2019-03-25T00:32:46.683Z,21.03
2019-03-25T00:35:16.446Z,20.23
2019-03-25T00:37:44.718Z,19.30
2019-03-25T00:40:13.007Z,18.30
2019-03-25T00:42:41.838Z,14.87
2019-03-25T00:45:10.201Z,16.20
2019-03-25T00:47:40.005Z,14.10
2019-03-25T00:50:08.957Z,13.87
2019-03-25T00:52:37.150Z,13.43
2019-03-25T00:55:05.812Z,13.10
2019-03-25T00:57:34.189Z,14.53
2019-03-25T01:00:02.471Z,12.80
2019-03-25T01:02:30.736Z,13.27
2019-03-25T01:04:59.025Z,10.80
2019-03-25T01:07:27.222Z,11.00
2019-03-25T01:09:55.510Z,10.67
2019-03-25T01:12:23.697Z,11.37
2019-03-25T01:14:52.721Z,11.40
2019-03-25T01:17:20.989Z,11.20
2019-03-25T01:19:49.449Z,10.63
2019-03-25T01:22:17.730Z,10.07
2019-03-25T01:24:46.893Z,10.23
2019-03-25T01:27:15.081Z,9.53
2019-03-25T01:29:43.298Z,8.77
2019-03-25T01:32:11.544Z,9.40
2019-03-25T01:34:39.774Z,8.37
2019-03-25T01:37:07.971Z,7.80
2019-03-25T01:39:36.254Z,7.00
2019-03-25T01:42:04.437Z,6.47
2019-03-25T01:44:34.650Z,7.80
2019-03-25T01:47:02.921Z,6.80
2019-03-25T01:49:31.194Z,7.07
2019-03-25T01:51:59.477Z,6.50
2019-03-25T01:54:27.666Z,6.30
2019-03-25T01:56:55.962Z,5.90
2019-03-25T01:59:24.154Z,5.90
2019-03-25T02:01:52.443Z,5.80
2019-03-25T02:04:20.698Z,5.43
2019-03-25T02:06:49.715Z,6.23
2019-03-25T02:09:17.984Z,5.40
2019-03-25T02:11:46.500Z,6.07
2019-03-25T02:14:15.008Z,4.80
2019-03-25T02:16:43.296Z,5.50
2019-03-25T02:19:11.558Z,5.10
2019-03-25T02:21:39.858Z,5.20
2019-03-25T02:24:08.064Z,5.20
2019-03-25T02:26:36.325Z,5.23
2019-03-25T02:29:04.545Z,5.10
2019-03-25T02:31:32.806Z,5.70
2019-03-25T02:34:01.332Z,5.10
2019-03-25T02:36:29.598Z,4.93
2019-03-25T02:38:57.889Z,5.33
2019-03-25T02:41:26.943Z,4.60
2019-03-25T02:43:55.233Z,6.73
2019-03-25T02:46:23.493Z,4.00
2019-03-25T02:48:52.603Z,4.70
2019-03-25T02:51:21.138Z,3.77
2019-03-25T02:53:49.428Z,3.43
2019-03-25T02:56:18.458Z,3.70
2019-03-25T02:58:46.745Z,4.20
2019-03-25T03:01:15.004Z,3.47
2019-03-25T03:03:43.281Z,3.33
2019-03-25T03:06:11.477Z,4.50
2019-03-25T03:08:39.766Z,3.90
2019-03-25T03:11:08.028Z,4.10
2019-03-25T03:13:36.315Z,4.10
2019-03-25T03:16:04.578Z,4.13
2019-03-25T03:18:32.887Z,4.23
2019-03-25T03:21:01.152Z,4.20
2019-03-25T03:23:29.394Z,3.60
2019-03-25T03:25:58.423Z,4.50
2019-03-25T03:28:26.747Z,5.50
2019-03-25T03:30:55.064Z,5.07
2019-03-25T03:33:23.291Z,4.30
2019-03-25T03:35:51.567Z,5.13
2019-03-25T03:38:20.071Z,5.50
2019-03-25T03:40:50.019Z,4.77
2019-03-25T03:43:18.307Z,5.50
2019-03-25T03:45:46.586Z,5.23
2019-03-25T03:48:14.834Z,4.63
2019-03-25T03:50:43.124Z,4.33
2019-03-25T03:53:11.385Z,4.80
2019-03-25T03:55:40.663Z,4.63
2019-03-25T03:58:09.271Z,5.90
2019-03-25T04:00:38.769Z,5.37
2019-03-25T04:03:06.950Z,3.90
2019-03-25T04:05:35.247Z,5.27
2019-03-25T04:08:03.511Z,5.57
2019-03-25T04:10:33.335Z,4.90
2019-03-25T04:13:01.611Z,4.30
2019-03-25T04:15:31.683Z,4.50
2019-03-25T04:18:00.119Z,4.63
2019-03-25T04:20:28.990Z,4.23
2019-03-25T04:22:57.176Z,3.67
2019-03-25T04:25:25.449Z,4.13
2019-03-25T04:27:53.809Z,3.90
2019-03-25T04:30:22.341Z,3.90
2019-03-25T04:32:51.390Z,4.40
2019-03-25T04:35:19.642Z,5.50
2019-03-25T04:37:48.349Z,4.40
2019-03-25T04:40:18.146Z,4.60
2019-03-25T04:42:47.440Z,4.17
2019-03-25T04:45:15.701Z,4.90
2019-03-25T04:47:43.921Z,5.00
2019-03-25T04:50:12.253Z,6.10
2019-03-25T04:52:40.546Z,6.77
2019-03-25T04:55:08.981Z,6.90
2019-03-25T04:57:37.269Z,7.70
2019-03-25T05:00:06.002Z,7.63
2019-03-25T05:02:34.215Z,8.00
2019-03-25T05:05:02.547Z,7.60
2019-03-25T05:07:31.702Z,7.43
2019-03-25T05:10:00.408Z,7.10
2019-03-25T05:12:28.609Z,7.13
2019-03-25T05:14:56.898Z,7.20
2019-03-25T05:17:25.172Z,6.80
2019-03-25T05:19:53.450Z,7.37
2019-03-25T05:22:23.255Z,6.80
2019-03-25T05:24:51.465Z,7.00
2019-03-25T05:27:20.217Z,7.83
2019-03-25T05:29:48.445Z,6.50
2019-03-25T05:32:16.632Z,6.17
2019-03-25T05:34:44.893Z,7.53
2019-03-25T05:37:14.846Z,6.80
2019-03-25T05:39:43.109Z,6.73
2019-03-25T05:42:11.397Z,7.00
2019-03-25T05:44:39.593Z,6.60
2019-03-25T05:47:07.886Z,6.13
2019-03-25T05:49:36.151Z,7.10
2019-03-25T05:52:04.368Z,6.87
2019-03-25T05:54:32.630Z,6.67
2019-03-25T05:57:02.635Z,7.00
2019-03-25T05:59:30.753Z,7.60
2019-03-25T06:01:58.967Z,7.47
2019-03-25T06:04:27.154Z,6.10
2019-03-25T06:06:55.404Z,6.40
2019-03-25T06:09:23.670Z,6.27
2019-03-25T06:11:51.954Z,6.67
2019-03-25T06:14:20.144Z,7.00
2019-03-25T06:16:48.428Z,6.23
2019-03-25T06:19:16.696Z,6.30
2019-03-25T06:21:44.978Z,7.37
2019-03-25T06:24:13.493Z,5.60
2019-03-25T06:26:41.770Z,6.97
2019-03-25T06:29:10.053Z,5.50
2019-03-25T06:31:38.257Z,6.63
2019-03-25T06:34:06.622Z,6.00
2019-03-25T06:36:35.124Z,6.73
2019-03-25T06:39:05.781Z,6.47
2019-03-25T06:41:33.974Z,6.00
2019-03-25T06:44:03.429Z,5.87
2019-03-25T06:46:31.621Z,5.70
2019-03-25T06:48:59.839Z,5.53
2019-03-25T06:51:28.135Z,6.27
2019-03-25T06:53:56.418Z,5.60
2019-03-25T06:56:24.682Z,5.90
2019-03-25T06:58:52.971Z,5.83
2019-03-25T07:01:21.243Z,5.87
2019-03-25T07:03:49.509Z,5.77
2019-03-25T07:06:17.769Z,6.37
2019-03-25T07:08:45.990Z,6.70
2019-03-25T07:11:14.617Z,6.27
2019-03-25T07:13:43.409Z,6.30
2019-03-25T07:16:11.701Z,5.37
2019-03-25T07:18:39.954Z,6.27
2019-03-25T07:21:08.260Z,6.20
2019-03-25T07:23:36.816Z,5.10
2019-03-25T07:26:05.149Z,5.33
2019-03-25T07:28:38.744Z,5.70
2019-03-25T07:31:06.005Z,5.73
2019-03-25T07:33:34.203Z,5.40
2019-03-25T07:36:03.679Z,6.10
2019-03-25T07:38:32.049Z,5.50
2019-03-25T07:41:02.633Z,5.67
2019-03-25T07:43:30.841Z,6.60
2019-03-25T07:45:59.310Z,6.20
2019-03-25T07:48:27.529Z,5.43
2019-03-25T07:50:55.797Z,5.60
2019-03-25T07:53:24.081Z,6.10
2019-03-25T07:55:52.337Z,5.00
2019-03-25T07:58:20.549Z,6.40
2019-03-25T08:00:48.854Z,5.97
2019-03-25T08:03:17.102Z,5.23
2019-03-25T08:05:45.530Z,5.57
2019-03-25T08:08:13.809Z,5.97
2019-03-25T08:10:42.081Z,5.93
2019-03-25T08:13:11.254Z,6.07
2019-03-25T08:15:41.560Z,5.63
2019-03-25T08:18:09.537Z,6.03
2019-03-25T08:20:38.044Z,5.43
2019-03-25T08:23:06.325Z,5.40
2019-03-25T08:25:34.631Z,5.97
2019-03-25T08:28:03.234Z,5.30
2019-03-25T08:30:31.517Z,5.27
2019-03-25T08:32:59.784Z,5.63
2019-03-25T08:35:28.079Z,4.47
2019-03-25T08:37:56.598Z,4.83
2019-03-25T08:40:25.255Z,4.40
2019-03-25T08:42:53.513Z,4.27
2019-03-25T08:45:21.863Z,4.20
2019-03-25T08:47:50.355Z,4.00
2019-03-25T08:50:19.888Z,4.50
2019-03-25T08:52:48.164Z,4.40
2019-03-25T08:55:16.694Z,4.07
2019-03-25T08:57:44.890Z,3.70
2019-03-25T09:00:13.477Z,4.03
2019-03-25T09:02:41.738Z,3.93
2019-03-25T09:05:11.163Z,4.00
2019-03-25T09:07:39.498Z,4.03
2019-03-25T09:10:07.941Z,4.73
2019-03-25T09:12:36.131Z,3.43
2019-03-25T09:15:06.206Z,3.37
2019-03-25T09:17:34.466Z,3.40
2019-03-25T09:20:03.527Z,3.20
2019-03-25T09:22:31.802Z,3.83
2019-03-25T09:24:59.995Z,3.23
2019-03-25T09:27:28.783Z,3.53
2019-03-25T09:29:56.970Z,3.13
2019-03-25T09:32:25.262Z,3.33
2019-03-25T09:34:53.529Z,2.67
2019-03-25T09:37:21.738Z,2.53
2019-03-25T09:39:52.804Z,3.40
2019-03-25T09:42:21.349Z,2.33
2019-03-25T09:44:50.992Z,2.30
2019-03-25T09:47:19.274Z,2.47
2019-03-25T09:49:47.862Z,2.33
2019-03-25T09:52:16.145Z,2.97
2019-03-25T09:54:46.047Z,2.27
2019-03-25T09:57:14.245Z,2.50
2019-03-25T09:59:42.430Z,2.30
2019-03-25T10:02:10.722Z,2.63
2019-03-25T10:04:39.058Z,2.97
2019-03-25T10:07:07.342Z,2.30
2019-03-25T10:09:35.766Z,2.87
2019-03-25T10:12:04.118Z,3.53
2019-03-25T10:14:32.377Z,3.17
2019-03-25T10:17:00.661Z,2.87
2019-03-25T10:19:28.913Z,2.83
2019-03-25T10:21:57.122Z,2.53
2019-03-25T10:24:27.827Z,3.30
2019-03-25T10:26:55.253Z,2.57
2019-03-25T10:29:24.017Z,5.10
2019-03-25T10:31:52.257Z,3.90
2019-03-25T10:34:20.518Z,3.87
2019-03-25T10:36:48.967Z,3.93
2019-03-25T10:39:17.257Z,3.50
2019-03-25T10:41:45.528Z,3.90
2019-03-25T10:44:15.768Z,3.73
2019-03-25T10:46:43.966Z,4.20
2019-03-25T10:49:12.289Z,3.83
2019-03-25T10:51:40.556Z,3.87
2019-03-25T10:54:08.907Z,3.37
2019-03-25T10:56:37.161Z,3.77
2019-03-25T10:59:06.234Z,3.97
2019-03-25T11:01:34.502Z,4.07
2019-03-25T11:04:02.961Z,3.80
2019-03-25T11:06:31.217Z,4.13
2019-03-25T11:08:59.729Z,4.07
2019-03-25T11:11:27.946Z,4.50
2019-03-25T11:13:56.208Z,4.67
2019-03-25T11:16:24.506Z,4.33
2019-03-25T11:18:52.758Z,4.20
2019-03-25T11:21:21.541Z,4.73
2019-03-25T11:23:49.721Z,4.30
2019-03-25T11:26:18.006Z,4.63
2019-03-25T11:28:46.274Z,4.70
2019-03-25T11:31:14.557Z,4.93
2019-03-25T11:33:42.751Z,3.67
2019-03-25T11:36:11.029Z,3.87
2019-03-25T11:38:39.219Z,4.00
2019-03-25T11:41:07.433Z,4.90
2019-03-25T11:43:35.695Z,3.47
2019-03-25T11:46:04.458Z,4.50
2019-03-25T11:48:32.714Z,3.70
2019-03-25T11:51:00.936Z,3.70
2019-03-25T11:53:29.181Z,3.90
2019-03-25T11:55:59.298Z,4.03
2019-03-25T11:58:28.334Z,5.23
2019-03-25T12:00:56.758Z,4.37
2019-03-25T12:03:25.205Z,5.87
2019-03-25T12:05:53.494Z,3.70
2019-03-25T12:08:21.749Z,3.50
2019-03-25T12:10:50.035Z,3.70
2019-03-25T12:13:18.306Z,3.60
2019-03-25T12:15:46.600Z,5.23
2019-03-25T12:18:14.893Z,3.60
2019-03-25T12:20:43.079Z,3.90
2019-03-25T12:23:11.383Z,4.23
2019-03-25T12:25:39.645Z,3.67
2019-03-25T12:28:07.854Z,3.40
2019-03-25T12:30:36.122Z,3.60
2019-03-25T12:33:04.590Z,3.53
2019-03-25T12:35:32.854Z,3.03
2019-03-25T12:38:01.158Z,3.80
2019-03-25T12:40:29.344Z,3.77
2019-03-25T12:42:57.597Z,3.13
2019-03-25T12:45:28.322Z,3.27
2019-03-25T12:47:55.791Z,2.80
2019-03-25T12:50:24.141Z,2.90
2019-03-25T12:52:52.328Z,2.53
2019-03-25T12:55:20.605Z,2.53
2019-03-25T12:57:48.790Z,2.60
2019-03-25T13:00:18.605Z,2.87
2019-03-25T13:02:46.861Z,3.60
2019-03-25T13:05:15.213Z,2.83
2019-03-25T13:07:43.507Z,2.73
2019-03-25T13:10:11.793Z,3.23
2019-03-25T13:12:40.130Z,3.57
2019-03-25T13:15:08.480Z,3.30
2019-03-25T13:17:36.768Z,3.07
2019-03-25T13:20:06.119Z,3.37
2019-03-25T13:22:34.377Z,2.97
2019-03-25T13:25:02.561Z,3.37
2019-03-25T13:27:30.845Z,2.97
2019-03-25T13:29:59.116Z,2.67
2019-03-25T13:32:27.405Z,2.83
2019-03-25T13:34:55.667Z,2.50
2019-03-25T13:37:23.876Z,2.33
2019-03-25T13:39:52.360Z,2.60
2019-03-25T13:42:20.850Z,3.00
2019-03-25T13:44:49.110Z,2.70
2019-03-25T13:47:17.297Z,2.63
2019-03-25T13:49:45.770Z,2.67
2019-03-25T13:52:14.045Z,2.97
2019-03-25T13:54:42.326Z,2.70
2019-03-25T13:57:12.691Z,3.00
2019-03-25T13:59:40.970Z,2.60
2019-03-25T14:02:09.232Z,2.63
2019-03-25T14:04:37.513Z,3.03
2019-03-25T14:07:05.699Z,2.80
2019-03-25T14:09:33.983Z,2.57
2019-03-25T14:12:02.234Z,2.83
2019-03-25T14:14:30.449Z,2.63
2019-03-25T14:16:58.707Z,2.80
2019-03-25T14:19:29.533Z,2.97
2019-03-25T14:21:57.802Z,2.93
2019-03-25T14:24:28.566Z,2.67
2019-03-25T14:26:57.530Z,2.23
2019-03-25T14:29:25.841Z,2.00
2019-03-25T14:31:54.090Z,2.20
2019-03-25T14:34:22.380Z,2.67
2019-03-25T14:36:50.634Z,2.30
2019-03-25T14:39:18.900Z,2.13
2019-03-25T14:41:47.257Z,7.23
2019-03-25T14:44:15.505Z,2.30
2019-03-25T14:46:43.806Z,2.53
2019-03-25T14:49:12.050Z,2.37
2019-03-25T14:51:40.503Z,2.40
2019-03-25T14:54:08.758Z,2.30
2019-03-25T14:56:37.046Z,2.10
2019-03-25T14:59:05.377Z,2.43
2019-03-25T15:01:33.657Z,3.87
2019-03-25T15:04:01.855Z,4.20
2019-03-25T15:06:30.205Z,2.23
2019-03-25T15:08:58.462Z,3.37
2019-03-25T15:11:27.305Z,5.47
2019-03-25T15:13:56.637Z,6.03
2019-03-25T15:16:24.841Z,1.90
2019-03-25T15:18:53.031Z,2.20
2019-03-25T15:21:21.570Z,2.13
2019-03-25T15:23:51.550Z,2.70
2019-03-25T15:26:19.844Z,1.90
2019-03-25T15:28:48.094Z,3.90
2019-03-25T15:31:16.382Z,1.97
2019-03-25T15:33:44.641Z,1.87
2019-03-25T15:36:12.919Z,1.70
2019-03-25T15:38:41.182Z,2.30
2019-03-25T15:41:09.529Z,1.57
2019-03-25T15:43:37.729Z,1.40
2019-03-25T15:46:06.155Z,2.23
2019-03-25T15:48:36.948Z,2.70
2019-03-25T15:51:05.206Z,1.97
2019-03-25T15:53:34.266Z,1.63
2019-03-25T15:56:02.706Z,1.43
2019-03-25T15:58:31.315Z,1.83
2019-03-25T16:01:00.712Z,2.00
2019-03-25T16:03:28.994Z,2.23
2019-03-25T16:05:57.366Z,1.83
2019-03-25T16:08:25.654Z,1.73
2019-03-25T16:10:53.917Z,2.03
2019-03-25T16:13:23.793Z,1.43
2019-03-25T16:15:52.098Z,1.77
2019-03-25T16:18:33.264Z,1.27
2019-03-25T16:21:01.520Z,1.80
2019-03-25T16:23:29.801Z,2.07
2019-03-25T16:25:58.256Z,1.10
2019-03-25T16:28:26.542Z,1.40
2019-03-25T16:30:58.929Z,0.93
2019-03-25T16:33:24.718Z,1.10
2019-03-25T16:35:53.006Z,1.00
2019-03-25T16:38:21.266Z,1.10
2019-03-25T16:40:49.562Z,1.50
2019-03-25T16:43:17.822Z,0.80
2019-03-25T16:45:46.029Z,1.10
2019-03-25T16:48:14.226Z,0.80
2019-03-25T16:50:42.433Z,0.80
2019-03-25T16:53:10.630Z,0.80
2019-03-25T16:55:38.912Z,1.10
2019-03-25T16:58:07.245Z,0.90
2019-03-25T17:00:35.452Z,0.90
2019-03-25T17:03:03.890Z,0.83
2019-03-25T17:05:32.173Z,0.80
2019-03-25T17:08:00.357Z,1.10
2019-03-25T17:10:28.922Z,0.93
2019-03-25T17:12:57.114Z,0.83
2019-03-25T17:15:25.439Z,1.20
2019-03-25T17:17:53.704Z,9.87
2019-03-25T17:20:21.982Z,3.03
2019-03-25T17:22:50.260Z,6.47
2019-03-25T17:25:18.518Z,19.17
2019-03-25T17:27:46.731Z,2.90
2019-03-25T17:30:15.758Z,1.40
2019-03-25T17:32:44.454Z,1.30
2019-03-25T17:35:12.786Z,1.30
2019-03-25T17:37:43.260Z,0.90
2019-03-25T17:40:11.453Z,1.00
2019-03-25T17:42:39.714Z,1.30
2019-03-25T17:45:09.882Z,1.57
2019-03-25T17:47:38.121Z,1.87
2019-03-25T17:50:07.149Z,1.30
2019-03-25T17:52:36.155Z,1.77
2019-03-25T17:55:07.371Z,1.50
2019-03-25T17:57:35.658Z,1.07
2019-03-25T18:00:08.448Z,1.20
2019-03-25T18:02:36.764Z,1.00
2019-03-25T18:05:06.522Z,1.00
2019-03-25T18:07:34.802Z,1.63
2019-03-25T18:10:03.929Z,1.70
2019-03-25T18:12:38.876Z,1.47
2019-03-25T18:15:02.041Z,1.37
2019-03-25T18:17:30.326Z,1.80
2019-03-25T18:20:00.139Z,1.70
2019-03-25T18:22:38.966Z,2.03
2019-03-25T18:24:58.477Z,1.93
2019-03-25T18:27:26.773Z,1.80
2019-03-25T18:29:55.035Z,3.00
2019-03-25T18:32:23.321Z,3.10
2019-03-25T18:34:51.506Z,3.07
2019-03-25T18:37:19.714Z,2.20
2019-03-25T18:39:49.039Z,2.73
2019-03-25T18:42:17.318Z,2.43
2019-03-25T18:44:45.662Z,2.00
2019-03-25T18:47:14.574Z,1.83
2019-03-25T18:49:42.907Z,2.40
2019-03-25T18:52:11.260Z,2.20
2019-03-25T18:54:39.585Z,2.23
2019-03-25T18:57:07.875Z,2.00
2019-03-25T18:59:37.678Z,2.20
2019-03-25T19:02:05.964Z,2.20
2019-03-25T19:04:34.226Z,2.00
2019-03-25T19:07:02.593Z,2.00
2019-03-25T19:09:31.166Z,2.43
2019-03-25T19:11:59.450Z,4.50
2019-03-25T19:14:27.636Z,2.63
2019-03-25T19:16:55.915Z,2.70
2019-03-25T19:19:24.197Z,2.37
2019-03-25T19:21:52.492Z,3.43
2019-03-25T19:24:20.778Z,2.70
2019-03-25T19:26:49.066Z,2.80
2019-03-25T19:29:17.353Z,3.63
2019-03-25T19:31:45.581Z,2.93
2019-03-25T19:34:13.886Z,3.80
2019-03-25T19:36:42.133Z,3.40
2019-03-25T19:39:10.346Z,2.73
2019-03-25T19:41:38.615Z,3.10
2019-03-25T19:44:06.915Z,3.07
2019-03-25T19:46:35.157Z,3.00
2019-03-25T19:49:03.546Z,3.30
2019-03-25T19:51:31.844Z,3.47
2019-03-25T19:54:00.125Z,3.37
2019-03-25T19:56:28.420Z,3.00
2019-03-25T19:58:56.757Z,2.70
2019-03-25T20:01:25.062Z,2.50
2019-03-25T20:03:53.351Z,3.50
2019-03-25T20:06:26.002Z,7.40
2019-03-25T20:08:51.710Z,5.23
2019-03-25T20:11:19.999Z,8.00
2019-03-25T20:13:48.277Z,6.90
2019-03-25T20:16:17.365Z,2.90
2019-03-25T20:18:45.660Z,1.97
2019-03-25T20:21:13.884Z,1.30
2019-03-25T20:23:42.151Z,1.27
2019-03-25T20:26:10.418Z,1.10
2019-03-25T20:28:41.126Z,1.40
2019-03-25T20:31:10.614Z,1.20
2019-03-25T20:33:38.889Z,1.87
2019-03-25T20:36:07.307Z,1.80
2019-03-25T20:38:35.906Z,1.20
2019-03-25T20:41:05.322Z,1.40
2019-03-25T20:43:33.534Z,1.20
2019-03-25T20:46:02.596Z,2.17
2019-03-25T20:48:30.813Z,1.70
2019-03-25T20:50:59.039Z,1.80
2019-03-25T20:53:27.313Z,2.07
2019-03-25T20:55:55.637Z,1.70
2019-03-25T20:58:24.204Z,1.70
2019-03-25T21:00:53.352Z,1.40
2019-03-25T21:03:21.676Z,3.10
2019-03-25T21:05:50.029Z,2.20
2019-03-25T21:08:18.294Z,2.40
2019-03-25T21:10:46.648Z,2.10
2019-03-25T21:13:14.940Z,2.67
2019-03-25T21:15:43.248Z,4.00
2019-03-25T21:18:12.561Z,2.90
2019-03-25T21:20:41.627Z,2.33
2019-03-25T21:23:13.386Z,3.07
2019-03-25T21:25:41.392Z,3.10
2019-03-25T21:28:09.731Z,3.27
2019-03-25T21:30:47.274Z,2.67
2019-03-25T21:33:07.997Z,2.90
2019-03-25T21:35:36.469Z,4.10
2019-03-25T21:38:05.006Z,3.13
2019-03-25T21:40:36.390Z,2.70
2019-03-25T21:43:04.915Z,2.70
2019-03-25T21:45:35.787Z,2.53
2019-03-25T21:48:04.220Z,3.03
2019-03-25T21:50:32.561Z,3.03
2019-03-25T21:53:01.615Z,4.20
2019-03-25T21:55:29.950Z,3.80
2019-03-25T21:57:58.207Z,3.60
2019-03-25T22:00:26.457Z,3.43
2019-03-25T22:02:54.699Z,3.70
2019-03-25T22:05:22.986Z,3.60
2019-03-25T22:07:52.315Z,3.50
2019-03-25T22:10:20.597Z,3.80
2019-03-25T22:12:48.853Z,3.73
2019-03-25T22:15:17.325Z,4.00
2019-03-25T22:17:45.589Z,4.00
2019-03-25T22:20:13.938Z,4.23
2019-03-25T22:22:42.382Z,4.50
2019-03-25T22:25:11.130Z,4.20
2019-03-25T22:27:39.391Z,4.17
2019-03-25T22:30:08.998Z,4.93
2019-03-25T22:32:37.259Z,5.03
2019-03-25T22:35:06.247Z,4.70
2019-03-25T22:37:36.426Z,5.20
2019-03-25T22:40:08.428Z,4.80
2019-03-25T22:42:36.645Z,5.87
2019-03-25T22:45:06.855Z,5.60
2019-03-25T22:47:35.408Z,5.20
2019-03-25T22:50:04.929Z,5.53
2019-03-25T22:52:33.309Z,5.93
2019-03-25T22:55:01.622Z,5.67
2019-03-25T22:57:29.907Z,5.70
2019-03-25T22:59:58.099Z,6.00
2019-03-25T23:02:26.401Z,5.77
2019-03-25T23:04:54.658Z,6.60
2019-03-25T23:07:22.926Z,6.93
2019-03-25T23:09:51.223Z,7.13
2019-03-25T23:12:21.413Z,7.17
2019-03-25T23:14:50.493Z,6.70
2019-03-25T23:17:20.291Z,7.17
2019-03-25T23:19:48.508Z,7.87
2019-03-25T23:22:16.767Z,8.03
2019-03-25T23:24:46.074Z,7.20
2019-03-25T23:27:14.333Z,6.80
2019-03-25T23:29:42.537Z,7.17
2019-03-25T23:32:11.466Z,7.80
2019-03-25T23:34:39.673Z,9.17
2019-03-25T23:37:07.881Z,7.60
2019-03-25T23:39:36.165Z,8.30
2019-03-25T23:42:04.430Z,7.63
2019-03-25T23:44:32.681Z,8.90
2019-03-25T23:47:00.889Z,7.90
2019-03-25T23:49:29.144Z,7.33
2019-03-25T23:51:57.354Z,7.40
2019-03-25T23:54:25.537Z,8.13
2019-03-25T23:56:53.746Z,7.60
2019-03-25T23:59:22.266Z,6.73
